Trinity, Nevada
Current Conditions -  °F | °C
As of 10:53 AM on Thursday 23 Oct 2014 (Local Time) from KLOL Reporting Station
Clear Clear  
Wind Chill: 59°   Ceiling: Unl
Heat Index: 59°   Visibility: 10mi
Dew Point: 26°   Wind: 3mph
Humidity: 28%   Direction: 280°W
Pressure: 30.1"   Gusts: NA
Location:  40.3545°N, 118.628°W
Report Text: KLOL 231753Z AUTO 28003KT 10SM CLR 15/M03 A3010 RMK AO2 SLP178 T01501033 10150 20067 50003
Loading
Personal Weather Stations






























Interactive Weather Map
Tropical Storm Tracking
New forecast layout! Learn more

10-Day Weather Forecast

Advertisements
Track Severe Weather on mobile